createdAt,value
2022-08-28T00:02:05.642Z,102008.09
2022-08-28T00:04:33.351Z,102008.09
2022-08-28T00:07:01.566Z,102013.31
2022-08-28T00:09:29.147Z,102018.56
2022-08-28T00:11:56.731Z,102006.34
2022-08-28T00:14:26.225Z,102010.72
2022-08-28T00:16:54.549Z,102015.94
2022-08-28T00:19:24.006Z,102014.16
2022-08-28T00:21:52.294Z,102000.22
2022-08-28T00:24:19.954Z,102011.56
2022-08-28T00:27:05.558Z,102026.38
2022-08-28T00:29:33.179Z,102015.03
2022-08-28T00:32:00.959Z,102015.03
2022-08-28T00:34:33.099Z,102014.19
2022-08-28T00:37:01.579Z,102021.13
2022-08-28T00:39:29.321Z,101995.00
2022-08-28T00:41:57.962Z,102011.56
2022-08-28T00:44:27.742Z,102015.03
2022-08-28T00:46:57.812Z,102019.41
2022-08-28T00:49:28.849Z,102029.00
2022-08-28T00:52:09.042Z,102029.88
2022-08-28T00:54:59.511Z,102029.84
2022-08-28T00:57:48.456Z,102022.03
2022-08-28T01:00:22.025Z,102030.69
2022-08-28T01:02:49.623Z,102028.97
2022-08-28T01:05:18.213Z,102028.97
2022-08-28T01:07:46.973Z,102015.00
2022-08-28T01:10:19.299Z,102029.81
2022-08-28T01:12:47.040Z,102023.75
2022-08-28T01:15:18.315Z,102022.00
2022-08-28T01:17:50.061Z,102022.84
2022-08-28T01:20:22.128Z,102029.84
2022-08-28T01:23:09.023Z,102029.81
2022-08-28T01:25:39.053Z,102027.19
2022-08-28T01:28:12.418Z,102028.06
2022-08-28T01:30:42.900Z,102023.69
2022-08-28T01:33:10.391Z,102020.22
2022-08-28T01:35:43.750Z,102021.97
2022-08-28T01:38:11.862Z,102028.91
2022-08-28T01:40:45.126Z,102022.81
2022-08-28T01:43:24.091Z,102026.31
2022-08-28T01:45:56.039Z,102022.78
2022-08-28T01:48:26.708Z,102038.47
2022-08-28T01:50:55.145Z,102029.72
2022-08-28T01:53:25.667Z,102026.25
2022-08-28T01:56:02.978Z,102021.91
2022-08-28T01:58:37.406Z,102030.56
2022-08-28T02:01:06.063Z,102032.34
2022-08-28T02:03:33.675Z,102030.59
2022-08-28T02:06:01.157Z,102023.63
2022-08-28T02:08:28.739Z,102038.44
2022-08-28T02:10:56.198Z,102030.56
2022-08-28T02:13:25.675Z,102035.81
2022-08-28T02:15:53.330Z,102044.53
2022-08-28T02:18:22.017Z,102045.41
2022-08-28T02:20:49.583Z,102048.00
2022-08-28T02:23:17.670Z,102048.88
2022-08-28T02:25:45.205Z,102039.31
2022-08-28T02:28:12.787Z,102044.50
2022-08-28T02:30:41.025Z,102039.25
2022-08-28T02:33:08.949Z,102038.41
2022-08-28T02:35:36.497Z,102041.03
2022-08-28T02:38:04.622Z,102036.66
2022-08-28T02:40:32.678Z,102042.72
2022-08-28T02:43:00.259Z,102051.44
2022-08-28T02:45:27.770Z,102037.47
2022-08-28T02:47:56.805Z,102052.25
2022-08-28T02:50:24.815Z,102050.50
2022-08-28T02:52:52.605Z,102045.28
2022-08-28T02:55:20.800Z,102053.13
2022-08-28T02:57:49.361Z,102046.13
2022-08-28T03:00:21.079Z,102052.22
2022-08-28T03:02:49.602Z,102051.34
2022-08-28T03:05:20.417Z,102054.81
2022-08-28T03:07:48.821Z,102061.78
2022-08-28T03:10:16.921Z,102064.34
2022-08-28T03:12:44.478Z,102064.31
2022-08-28T03:15:12.605Z,102067.78
2022-08-28T03:17:40.588Z,102056.47
2022-08-28T03:20:11.327Z,102058.19
2022-08-28T03:22:57.380Z,102065.09
2022-08-28T03:25:25.642Z,102059.84
2022-08-28T03:27:53.706Z,102059.84
2022-08-28T03:30:23.234Z,102054.63
2022-08-28T03:32:50.764Z,102055.50
2022-08-28T03:35:18.545Z,102063.31
2022-08-28T03:37:46.015Z,102059.84
2022-08-28T03:40:14.593Z,102063.31
2022-08-28T03:42:42.274Z,102070.28
2022-08-28T03:45:18.952Z,102063.31
2022-08-28T03:47:46.678Z,102065.06
2022-08-28T03:50:14.607Z,102077.25
2022-08-28T03:52:42.275Z,102068.50
2022-08-28T03:55:12.668Z,102070.28
2022-08-28T03:57:40.913Z,102076.34
2022-08-28T04:00:13.351Z,102078.94
2022-08-28T04:02:46.177Z,102083.31
2022-08-28T04:05:14.993Z,102087.63
2022-08-28T04:07:42.497Z,102087.59
2022-08-28T04:10:10.663Z,102089.34
2022-08-28T04:12:38.757Z,102087.59
2022-08-28T04:15:07.845Z,102097.16
2022-08-28T04:17:37.822Z,102097.13
2022-08-28T04:20:06.153Z,102092.78
2022-08-28T04:22:33.993Z,102092.75
2022-08-28T04:25:01.943Z,102100.63
2022-08-28T04:27:29.457Z,102089.34
2022-08-28T04:29:56.946Z,102099.75
2022-08-28T04:32:24.531Z,102091.03
2022-08-28T04:34:52.438Z,102104.09
2022-08-28T04:37:20.073Z,102093.66
2022-08-28T04:39:50.289Z,102098.00
2022-08-28T04:42:17.769Z,102100.59
2022-08-28T04:44:45.259Z,102097.94
2022-08-28T04:47:12.782Z,102101.47
2022-08-28T04:49:40.749Z,102098.81
2022-08-28T04:52:08.308Z,102106.66
2022-08-28T04:54:36.209Z,102104.00
2022-08-28T04:57:06.416Z,102108.34
2022-08-28T04:59:34.354Z,102110.13
2022-08-28T05:02:01.936Z,102117.97
2022-08-28T05:04:29.688Z,102117.97
2022-08-28T05:06:57.227Z,102124.00
2022-08-28T05:09:24.682Z,102122.28
2022-08-28T05:11:53.130Z,102131.00
2022-08-28T05:14:21.713Z,102118.81
2022-08-28T05:16:52.778Z,102124.06
2022-08-28T05:19:22.435Z,102128.44
2022-08-28T05:21:49.941Z,102122.34
2022-08-28T05:24:18.139Z,102122.34
2022-08-28T05:26:48.025Z,102129.34
2022-08-28T05:29:16.767Z,102130.28
2022-08-28T05:31:44.823Z,102130.31
2022-08-28T05:34:14.449Z,102132.94
2022-08-28T05:36:42.300Z,102138.25
2022-08-28T05:39:12.060Z,102140.03
2022-08-28T05:41:43.190Z,102140.09
2022-08-28T05:44:14.186Z,102135.72
2022-08-28T05:46:44.406Z,102136.69
2022-08-28T05:49:13.479Z,102138.47
2022-08-28T05:51:42.892Z,102133.31
2022-08-28T05:54:11.459Z,102135.97
2022-08-28T05:56:40.719Z,102141.25
2022-08-28T05:59:09.151Z,102136.06
2022-08-28T06:01:40.733Z,102142.22
2022-08-28T06:04:15.330Z,102144.03
2022-08-28T06:06:43.894Z,102144.03
2022-08-28T06:09:15.052Z,102145.81
2022-08-28T06:11:46.102Z,102148.44
2022-08-28T06:14:17.463Z,102140.59
2022-08-28T06:16:47.295Z,102138.88
2022-08-28T06:19:15.233Z,102132.72
2022-08-28T06:21:44.258Z,102140.56
2022-08-28T06:24:13.400Z,102126.56
2022-08-28T06:26:42.730Z,102130.88
2022-08-28T06:29:12.890Z,102128.22
2022-08-28T06:31:41.150Z,102130.78
2022-08-28T06:34:10.017Z,102126.34
2022-08-28T06:36:42.733Z,102126.28
2022-08-28T06:39:12.255Z,102127.09
2022-08-28T06:41:43.242Z,102135.69
2022-08-28T06:44:13.462Z,102133.00
2022-08-28T06:46:42.391Z,102137.31
2022-08-28T06:49:10.290Z,102144.25
2022-08-28T06:51:37.818Z,102132.72
2022-08-28T06:54:06.426Z,102128.31
2022-08-28T06:56:34.892Z,102143.16
2022-08-28T06:59:02.603Z,102137.78
2022-08-28T07:01:34.123Z,102136.03
2022-08-28T07:04:06.160Z,102144.56
2022-08-28T07:06:36.331Z,102134.88
2022-08-28T07:09:06.986Z,102136.63
2022-08-28T07:11:36.148Z,102141.78
2022-08-28T07:14:05.199Z,102143.25
2022-08-28T07:16:38.010Z,102140.69
2022-08-28T07:19:06.767Z,102144.16
2022-08-28T07:21:43.804Z,102150.00
2022-08-28T07:24:14.607Z,102156.22
2022-08-28T07:26:43.634Z,102149.13
2022-08-28T07:29:11.927Z,102150.78
2022-08-28T07:31:42.440Z,102159.16
2022-08-28T07:34:12.083Z,102162.44
2022-08-28T07:36:40.484Z,102167.66
2022-08-28T07:39:09.974Z,102167.16
2022-08-28T07:41:39.392Z,102178.69
2022-08-28T07:44:25.803Z,102166.28
2022-08-28T07:46:59.151Z,102173.97
2022-08-28T07:49:27.463Z,102168.56
2022-08-28T07:51:55.014Z,102150.28
2022-08-28T07:54:23.527Z,102159.56
2022-08-28T07:56:52.574Z,102157.13
2022-08-28T07:59:21.948Z,102163.78
2022-08-28T08:01:51.209Z,102164.63
2022-08-28T08:04:21.261Z,102164.53
2022-08-28T08:06:50.081Z,102175.06
2022-08-28T08:09:20.193Z,102180.91
2022-08-28T08:11:50.593Z,102167.84
2022-08-28T08:14:18.958Z,102173.28
2022-08-28T08:16:47.985Z,102181.00
2022-08-28T08:19:17.332Z,102185.19
2022-08-28T08:21:48.276Z,102189.63
2022-08-28T08:24:22.186Z,102181.44
2022-08-28T08:26:59.334Z,102183.84
2022-08-28T08:29:29.478Z,102171.72
2022-08-28T08:32:02.634Z,102174.63
2022-08-28T08:34:30.615Z,102186.41
2022-08-28T08:36:58.545Z,102175.91
2022-08-28T08:39:26.395Z,102178.50
2022-08-28T08:41:58.177Z,102168.84
2022-08-28T08:44:33.601Z,102172.28
2022-08-28T08:47:15.134Z,102179.25
2022-08-28T08:49:57.229Z,102157.63
2022-08-28T08:52:37.156Z,102168.94
2022-08-28T08:55:31.944Z,102168.47
2022-08-28T08:58:07.585Z,102165.63
2022-08-28T09:00:40.571Z,102167.03
2022-08-28T09:03:22.218Z,102165.03
2022-08-28T09:05:55.712Z,102170.91
2022-08-28T09:08:30.808Z,102173.63
2022-08-28T09:11:05.554Z,102161.34
2022-08-28T09:13:49.275Z,102169.63
2022-08-28T09:16:36.558Z,102169.44
2022-08-28T09:19:04.515Z,102163.56
2022-08-28T09:21:35.764Z,102174.84
2022-08-28T09:24:11.128Z,102173.09
2022-08-28T09:26:40.769Z,102164.56
2022-08-28T09:29:17.283Z,102161.91
2022-08-28T09:31:45.148Z,102176.69
2022-08-28T09:34:24.572Z,102187.81
2022-08-28T09:36:54.558Z,102165.25
2022-08-28T09:39:28.660Z,102173.44
2022-08-28T09:42:22.570Z,102158.13
2022-08-28T09:45:09.428Z,102178.44
2022-08-28T09:47:43.775Z,102176.88
2022-08-28T09:50:31.813Z,102165.63
2022-08-28T09:53:10.477Z,102173.16
2022-08-28T09:56:01.125Z,102179.53
2022-08-28T09:58:43.475Z,102175.69
2022-08-28T10:01:29.489Z,102178.69
2022-08-28T10:04:13.729Z,102164.94
2022-08-28T10:06:43.663Z,102166.28
2022-08-28T10:09:29.249Z,102168.47
2022-08-28T10:12:17.112Z,102166.63
2022-08-28T10:14:56.812Z,102174.06
2022-08-28T10:17:42.644Z,102182.63
2022-08-28T10:20:48.073Z,102173.69
2022-08-28T10:23:29.890Z,102173.66
2022-08-28T10:26:21.495Z,102182.34
2022-08-28T10:28:56.317Z,102173.91
2022-08-28T10:31:36.257Z,102181.47
2022-08-28T10:34:26.000Z,102166.22
2022-08-28T10:37:05.378Z,102179.47
2022-08-28T10:39:55.096Z,102168.88
2022-08-28T10:42:39.346Z,102181.34
2022-08-28T10:45:19.042Z,102182.81
2022-08-28T10:47:58.694Z,102179.22
2022-08-28T10:50:31.092Z,102165.72
2022-08-28T10:53:03.873Z,102161.00
2022-08-28T10:55:56.218Z,102172.50
2022-08-28T10:58:27.510Z,102174.22
2022-08-28T11:01:26.192Z,102169.34
2022-08-28T11:03:54.540Z,102173.69
2022-08-28T11:06:46.598Z,102164.50
2022-08-28T11:09:30.529Z,102178.50
2022-08-28T11:12:28.439Z,102174.34
2022-08-28T11:14:56.264Z,102173.09
2022-08-28T11:17:25.149Z,102175.53
2022-08-28T11:20:16.603Z,102171.81
2022-08-28T11:22:50.706Z,102170.03
2022-08-28T11:25:32.618Z,102191.13
2022-08-28T11:28:25.486Z,102182.19
2022-08-28T11:31:16.347Z,102176.75
2022-08-28T11:33:55.461Z,102169.53
2022-08-28T11:36:23.446Z,102177.88
2022-08-28T11:38:54.037Z,102176.53
2022-08-28T11:41:22.563Z,102174.59
2022-08-28T11:43:53.445Z,102176.69
2022-08-28T11:46:26.068Z,102184.38
2022-08-28T11:48:57.847Z,102177.78
2022-08-28T11:51:43.367Z,102173.84
2022-08-28T11:54:31.825Z,102173.66
2022-08-28T11:57:27.158Z,102175.63
2022-08-28T12:00:07.473Z,102164.13
2022-08-28T12:02:47.694Z,102167.72
2022-08-28T12:05:18.095Z,102180.41
2022-08-28T12:07:51.003Z,102181.06
2022-08-28T12:10:21.613Z,102185.94
2022-08-28T12:12:50.086Z,102181.41
2022-08-28T12:15:40.390Z,102172.13
2022-08-28T12:18:16.961Z,102169.03
2022-08-28T12:21:05.173Z,102170.84
2022-08-28T12:23:39.428Z,102168.59
2022-08-28T12:26:28.331Z,102172.03
2022-08-28T12:29:16.723Z,102178.09
2022-08-28T12:32:23.254Z,102173.63
2022-08-28T12:34:59.753Z,102168.09
2022-08-28T12:37:52.004Z,102161.81
2022-08-28T12:40:22.280Z,102159.00
2022-08-28T12:42:55.564Z,102169.78
2022-08-28T12:45:30.747Z,102160.41
2022-08-28T12:48:01.940Z,102170.53
2022-08-28T12:50:33.724Z,102172.97
2022-08-28T12:53:02.469Z,102173.47
2022-08-28T12:55:30.528Z,102172.47
2022-08-28T12:57:58.261Z,102169.59
2022-08-28T13:00:35.653Z,102163.28
2022-08-28T13:03:08.146Z,102169.75
2022-08-28T13:05:39.677Z,102175.50
2022-08-28T13:08:11.300Z,102170.25
2022-08-28T13:10:44.283Z,102159.44
2022-08-28T13:13:29.035Z,102164.19
2022-08-28T13:16:01.408Z,102158.56
2022-08-28T13:18:39.609Z,102151.59
2022-08-28T13:21:32.931Z,102152.19
2022-08-28T13:24:22.855Z,102157.28
2022-08-28T13:27:10.153Z,102156.66
2022-08-28T13:29:38.497Z,102151.75
2022-08-28T13:32:10.322Z,102150.59
2022-08-28T13:34:47.654Z,102154.75
2022-08-28T13:37:46.728Z,102156.41
2022-08-28T13:40:45.898Z,102156.91
2022-08-28T13:43:10.171Z,102156.22
2022-08-28T13:45:44.099Z,102155.19
2022-08-28T13:48:17.381Z,102148.50
2022-08-28T13:50:48.051Z,102159.16
2022-08-28T13:53:18.201Z,102149.53
2022-08-28T13:55:46.916Z,102144.97
2022-08-28T13:58:15.817Z,102147.47
2022-08-28T14:00:47.304Z,102135.44
2022-08-28T14:03:41.544Z,102140.75
2022-08-28T14:06:11.829Z,102137.09
2022-08-28T14:08:44.348Z,102128.00
2022-08-28T14:11:14.337Z,102135.38
2022-08-28T14:13:47.080Z,102135.91
2022-08-28T14:16:22.875Z,102135.69
2022-08-28T14:18:51.887Z,102143.88
2022-08-28T14:21:19.727Z,102133.13
2022-08-28T14:23:47.247Z,102148.16
2022-08-28T14:26:14.826Z,102154.78
2022-08-28T14:28:42.669Z,102134.59
2022-08-28T14:31:14.453Z,102137.25
2022-08-28T14:33:45.218Z,102133.88
2022-08-28T14:36:22.151Z,102137.88
2022-08-28T14:38:53.992Z,102140.38
2022-08-28T14:41:23.202Z,102144.50
2022-08-28T14:43:51.356Z,102144.72
2022-08-28T14:46:21.859Z,102151.97
2022-08-28T14:48:50.648Z,102145.22
2022-08-28T14:51:19.247Z,102150.63
2022-08-28T14:53:47.401Z,102142.75
2022-08-28T14:56:14.900Z,102148.84
2022-08-28T14:58:42.522Z,102137.94
2022-08-28T15:01:10.418Z,102141.78
2022-08-28T15:03:38.123Z,102143.50
2022-08-28T15:06:10.936Z,102141.47
2022-08-28T15:08:38.621Z,102137.84
2022-08-28T15:11:08.402Z,102130.00
2022-08-28T15:13:35.972Z,102141.56
2022-08-28T15:16:10.573Z,102120.38
2022-08-28T15:18:45.679Z,102134.47
2022-08-28T15:21:21.635Z,102136.06
2022-08-28T15:23:53.984Z,102134.59
2022-08-28T15:26:23.187Z,102131.44
2022-08-28T15:28:52.227Z,102127.72
2022-08-28T15:31:20.100Z,102138.22
2022-08-28T15:33:47.744Z,102128.34
2022-08-28T15:36:15.259Z,102121.47
2022-08-28T15:39:00.267Z,102119.94
2022-08-28T15:41:29.293Z,102126.56
2022-08-28T15:44:01.536Z,102124.28
2022-08-28T15:46:31.437Z,102118.31
2022-08-28T15:48:59.082Z,102114.66
2022-08-28T15:51:26.874Z,102123.44
2022-08-28T15:53:56.364Z,102134.78
2022-08-28T15:56:24.513Z,102115.94
2022-08-28T15:58:52.539Z,102126.53
2022-08-28T16:01:22.349Z,102126.78
2022-08-28T16:03:49.943Z,102121.19
2022-08-28T16:06:21.095Z,102125.09
2022-08-28T16:08:49.701Z,102121.22
2022-08-28T16:11:22.998Z,102124.78
2022-08-28T16:13:52.222Z,102125.59
2022-08-28T16:16:19.916Z,102127.97
2022-08-28T16:18:48.300Z,102119.94
2022-08-28T16:21:16.189Z,102115.03
2022-08-28T16:23:44.150Z,102121.13
2022-08-28T16:26:11.957Z,102131.06
2022-08-28T16:28:39.851Z,102131.41
2022-08-28T16:31:18.868Z,102130.75
2022-08-28T16:33:47.261Z,102129.94
2022-08-28T16:36:15.734Z,102140.06
2022-08-28T16:38:45.530Z,102128.81
2022-08-28T16:41:19.580Z,102141.19
2022-08-28T16:43:47.850Z,102127.50
2022-08-28T16:46:21.378Z,102138.47
2022-08-28T16:48:49.070Z,102136.16
2022-08-28T16:51:17.737Z,102130.03
2022-08-28T16:53:45.337Z,102129.16
2022-08-28T16:56:15.482Z,102127.50
2022-08-28T16:58:44.954Z,102130.00
2022-08-28T17:01:13.837Z,102140.09
2022-08-28T17:03:42.617Z,102140.31
2022-08-28T17:06:31.906Z,102140.50
2022-08-28T17:09:00.668Z,102138.97
2022-08-28T17:11:29.412Z,102139.03
2022-08-28T17:13:57.447Z,102139.13
2022-08-28T17:16:27.219Z,102137.47
2022-08-28T17:18:54.780Z,102142.81
2022-08-28T17:21:43.186Z,102146.13
2022-08-28T17:24:12.794Z,102140.78
2022-08-28T17:26:41.655Z,102135.72
2022-08-28T17:29:09.379Z,102137.28
2022-08-28T17:31:37.243Z,102131.38
2022-08-28T17:34:07.339Z,102133.91
2022-08-28T17:36:37.628Z,102135.81
2022-08-28T17:39:08.791Z,102136.78
2022-08-28T17:41:36.950Z,102132.63
2022-08-28T17:44:06.048Z,102136.16
2022-08-28T17:46:37.710Z,102108.31
2022-08-28T17:49:06.487Z,102132.94
2022-08-28T17:51:42.607Z,102129.66
2022-08-28T17:54:11.647Z,102135.91
2022-08-28T17:56:39.138Z,102136.91
2022-08-28T17:59:06.784Z,102134.47
2022-08-28T18:01:34.376Z,102128.50
2022-08-28T18:04:02.163Z,102137.44
2022-08-28T18:06:29.652Z,102136.69
2022-08-28T18:08:57.156Z,102132.59
2022-08-28T18:11:25.860Z,102135.34
2022-08-28T18:13:53.418Z,102131.97
2022-08-28T18:16:21.585Z,102134.59
2022-08-28T18:18:49.231Z,102128.69
2022-08-28T18:21:16.713Z,102134.97
2022-08-28T18:23:44.202Z,102138.69
2022-08-28T18:26:12.173Z,102131.72
2022-08-28T18:28:39.810Z,102144.88
2022-08-28T18:31:08.336Z,102137.03
2022-08-28T18:33:37.156Z,102135.41
2022-08-28T18:36:09.195Z,102141.75
2022-08-28T18:38:36.975Z,102137.44
2022-08-28T18:41:06.426Z,102141.00
2022-08-28T18:43:34.041Z,102144.63
2022-08-28T18:46:03.013Z,102145.56
2022-08-28T18:48:32.254Z,102143.03
2022-08-28T18:50:59.760Z,102145.78
2022-08-28T18:53:28.767Z,102155.47
2022-08-28T18:55:56.607Z,102155.53
2022-08-28T18:58:28.180Z,102157.34
2022-08-28T19:00:55.873Z,102158.28
2022-08-28T19:03:23.613Z,102157.53
2022-08-28T19:05:51.893Z,102161.06
2022-08-28T19:08:19.499Z,102162.91
2022-08-28T19:10:47.274Z,102169.09
2022-08-28T19:13:15.004Z,102162.97
2022-08-28T19:15:42.673Z,102177.94
2022-08-28T19:18:10.176Z,102171.81
2022-08-28T19:20:37.691Z,102175.34
2022-08-28T19:23:05.167Z,102184.19
2022-08-28T19:25:32.793Z,102186.84
2022-08-28T19:28:02.628Z,102191.28
2022-08-28T19:30:33.513Z,102190.44
2022-08-28T19:33:03.707Z,102190.50
2022-08-28T19:35:31.374Z,102186.16
2022-08-28T19:37:58.926Z,102187.06
2022-08-28T19:40:27.335Z,102199.34
2022-08-28T19:42:54.923Z,102195.88
2022-08-28T19:45:23.158Z,102188.06
2022-08-28T19:47:51.604Z,102192.47
2022-08-28T19:50:20.261Z,102198.59
2022-08-28T19:52:47.873Z,102192.50
2022-08-28T19:55:25.721Z,102210.09
2022-08-28T19:57:53.290Z,102212.75
2022-08-28T20:00:25.121Z,102208.38
2022-08-28T20:02:53.334Z,102184.88
2022-08-28T20:05:21.643Z,102212.84
2022-08-28T20:07:49.731Z,102212.91
2022-08-28T20:10:18.415Z,102213.78
2022-08-28T20:12:48.367Z,102210.28
2022-08-28T20:15:18.318Z,102215.59
2022-08-28T20:17:49.843Z,102217.34
2022-08-28T20:20:24.577Z,102219.06
2022-08-28T20:22:54.407Z,102215.56
2022-08-28T20:25:22.305Z,102212.09
2022-08-28T20:27:49.829Z,102219.94
2022-08-28T20:30:18.032Z,102222.59
2022-08-28T20:32:45.838Z,102229.59
2022-08-28T20:35:15.335Z,102217.34
2022-08-28T20:37:45.326Z,102221.78
2022-08-28T20:40:19.561Z,102223.50
2022-08-28T20:42:47.465Z,102226.13
2022-08-28T20:45:16.537Z,102220.00
2022-08-28T20:47:44.664Z,102220.78
2022-08-28T20:50:13.823Z,102233.06
2022-08-28T20:52:42.268Z,102240.88
2022-08-28T20:55:10.710Z,102231.25
2022-08-28T20:57:38.326Z,102230.34
2022-08-28T21:00:10.552Z,102241.75
2022-08-28T21:02:38.271Z,102252.31
2022-08-28T21:05:06.697Z,102242.69
2022-08-28T21:07:35.207Z,102253.19
2022-08-28T21:10:05.346Z,102256.69
2022-08-28T21:12:39.942Z,102258.47
2022-08-28T21:15:09.471Z,102257.56
2022-08-28T21:17:37.310Z,102246.34
2022-08-28T21:20:12.997Z,102267.34
2022-08-28T21:22:41.437Z,102259.47
2022-08-28T21:25:11.388Z,102266.47
2022-08-28T21:27:39.304Z,102263.81
2022-08-28T21:30:08.614Z,102265.56
2022-08-28T21:32:36.933Z,102265.63
2022-08-28T21:35:06.955Z,102276.16
2022-08-28T21:37:35.155Z,102286.56
2022-08-28T21:40:03.881Z,102278.75
2022-08-28T21:42:31.545Z,102280.50
2022-08-28T21:44:59.248Z,102283.16
2022-08-28T21:47:27.423Z,102268.28
2022-08-28T21:49:56.849Z,102269.16
2022-08-28T21:52:28.111Z,102270.06
2022-08-28T21:55:08.020Z,102272.69
2022-08-28T21:57:35.793Z,102270.97
2022-08-28T22:00:05.598Z,102271.88
2022-08-28T22:02:33.214Z,102257.84
2022-08-28T22:05:00.782Z,102264.88
2022-08-28T22:07:28.287Z,102269.25
2022-08-28T22:09:55.776Z,102266.69
2022-08-28T22:12:23.250Z,102271.97
2022-08-28T22:14:50.742Z,102258.91
2022-08-28T22:17:18.220Z,102271.13
2022-08-28T22:19:46.730Z,102286.94
2022-08-28T22:22:32.117Z,102278.22
2022-08-28T22:24:59.920Z,102275.63
2022-08-28T22:27:27.522Z,102279.19
2022-08-28T22:29:54.989Z,102273.97
2022-08-28T22:32:25.524Z,102287.06
2022-08-28T22:34:55.676Z,102280.09
2022-08-28T22:37:23.938Z,102276.63
2022-08-28T22:39:51.568Z,102274.88
2022-08-28T22:42:19.497Z,102274.88
2022-08-28T22:44:47.239Z,102285.38
2022-08-28T22:47:14.769Z,102283.66
2022-08-28T22:49:42.655Z,102275.81
2022-08-28T22:52:11.814Z,102271.47
2022-08-28T22:54:39.395Z,102266.25
2022-08-28T22:57:06.924Z,102268.84
2022-08-28T22:59:35.334Z,102265.34
2022-08-28T23:02:03.873Z,102266.22
2022-08-28T23:04:31.926Z,102260.97
2022-08-28T23:06:59.423Z,102260.13
2022-08-28T23:09:27.519Z,102265.34
2022-08-28T23:11:55.023Z,102264.47
2022-08-28T23:14:25.797Z,102265.38
2022-08-28T23:16:55.866Z,102272.34
2022-08-28T23:19:23.494Z,102267.13
2022-08-28T23:21:51.199Z,102274.97
2022-08-28T23:24:19.375Z,102259.25
2022-08-28T23:26:46.928Z,102259.25
2022-08-28T23:29:15.237Z,102261.03
2022-08-28T23:31:42.858Z,102267.97
2022-08-28T23:34:10.415Z,102260.13
2022-08-28T23:36:39.420Z,102258.38
2022-08-28T23:39:10.491Z,102255.78
2022-08-28T23:41:37.990Z,102255.75
2022-08-28T23:44:09.043Z,102251.41
2022-08-28T23:46:41.630Z,102254.00
2022-08-28T23:49:10.082Z,102247.88
2022-08-28T23:51:37.751Z,102248.78
2022-08-28T23:54:05.474Z,102248.75
2022-08-28T23:56:33.802Z,102249.63
2022-08-28T23:59:01.340Z,102247.91
